Time;durP1;ratioP1;P1;durP2;ratioP2;P2;SDS_P1;SDS_P2;PMS_P1;PMS_P2;Temp;Humidity;BMP_temperature;BMP_pressure;BME280_temperature;BME280_humidity;BME280_pressure;Samples;Min_cycle;Max_cycle;Signal;HPM_P1;HPM_P2
2023/09/06 00:01:24;;;;;;;5.87;2.50;;;16.20;99.90;;;16.99;100.00;98539.03;5071299;28;20472;-81
2023/09/06 00:03:55;;;;;;;4.10;1.90;;;16.10;99.90;;;16.98;100.00;98550.63;5068490;28;20497;-81
2023/09/06 00:06:27;;;;;;;4.77;1.93;;;16.00;99.90;;;16.97;100.00;98541.88;5071063;28;20456;-80
2023/09/06 00:08:57;;;;;;;6.60;2.40;;;16.00;99.90;;;16.96;100.00;98540.28;5071037;28;20459;-81
2023/09/06 00:11:27;;;;;;;15.50;2.80;;;16.10;99.90;;;16.95;100.00;98536.03;5068419;28;20978;-81
2023/09/06 00:13:57;;;;;;;2.70;2.03;;;16.20;99.90;;;16.95;100.00;98537.84;5069768;28;20877;-81
2023/09/06 00:16:26;;;;;;;5.57;2.57;;;16.10;99.90;;;16.86;100.00;98541.78;5072232;28;21164;-81
2023/09/06 00:18:59;;;;;;;5.97;2.13;;;16.00;99.90;;;16.85;100.00;98542.81;5073942;28;20525;-81
2023/09/06 00:21:32;;;;;;;2.57;2.27;;;16.10;99.90;;;16.82;100.00;98543.25;5074181;28;20845;-81
2023/09/06 00:24:03;;;;;;;6.00;2.40;;;16.00;99.90;;;16.83;100.00;98548.31;5073614;28;20464;-81
2023/09/06 00:26:34;;;;;;;13.27;3.70;;;15.90;99.90;;;16.79;100.00;98546.31;5075796;28;20447;-81
2023/09/06 00:29:06;;;;;;;2.20;2.00;;;15.90;99.90;;;16.76;100.00;98541.47;5079886;28;20463;-85
2023/09/06 00:31:36;;;;;;;4.53;2.10;;;15.70;99.90;;;16.65;100.00;98539.50;5076294;28;20463;-81
2023/09/06 00:34:08;;;;;;;2.63;2.13;;;15.70;99.90;;;16.60;100.00;98540.13;5074778;28;20609;-81
2023/09/06 00:36:40;;;;;;;2.70;2.10;;;15.80;99.90;;;16.65;100.00;98537.69;5078348;28;20460;-81
2023/09/06 00:39:10;;;;;;;4.30;2.30;;;15.70;99.90;;;16.60;100.00;98538.31;5077269;28;20480;-80
2023/09/06 00:41:41;;;;;;;2.10;1.90;;;15.80;99.90;;;16.58;100.00;98532.44;5075345;28;20461;-81
2023/09/06 00:44:12;;;;;;;3.10;2.20;;;15.70;99.90;;;16.59;100.00;98534.03;5077625;28;20528;-81
2023/09/06 00:46:42;;;;;;;5.97;2.63;;;15.60;99.90;;;16.65;100.00;98531.59;5076343;28;20460;-81
2023/09/06 00:49:11;;;;;;;6.77;2.50;;;15.60;99.90;;;16.63;100.00;98533.59;5074054;28;20594;-81
2023/09/06 00:51:43;;;;;;;3.10;2.30;;;15.50;99.90;;;16.57;100.00;98530.81;5077477;28;20466;-81
2023/09/06 00:54:14;;;;;;;3.37;2.40;;;15.50;99.90;;;16.60;100.00;98535.66;5076914;28;20547;-82
2023/09/06 00:56:44;;;;;;;4.80;2.30;;;15.50;99.90;;;16.54;100.00;98528.56;5080277;28;20468;-81
2023/09/06 00:59:16;;;;;;;2.90;2.20;;;15.50;99.90;;;16.48;100.00;98528.63;5075093;28;20945;-81
2023/09/06 01:01:46;;;;;;;5.67;2.13;;;15.60;99.90;;;16.48;100.00;98534.72;5075925;28;20792;-81
2023/09/06 01:04:16;;;;;;;4.20;2.10;;;15.50;99.90;;;16.33;100.00;98536.81;5078138;28;20464;-81
2023/09/06 01:06:55;;;;;;;4.13;2.07;;;15.50;99.90;;;16.40;100.00;98534.94;5075966;28;20844;-81
2023/09/06 01:09:25;;;;;;;3.67;2.10;;;15.40;99.90;;;16.41;100.00;98530.50;5076940;28;20467;-81
2023/09/06 01:11:55;;;;;;;2.80;2.03;;;15.40;99.90;;;16.39;100.00;98529.88;5073786;28;20889;-81
2023/09/06 01:14:25;;;;;;;7.43;3.00;;;15.30;99.90;;;16.30;100.00;98531.97;5073726;28;20590;-81
2023/09/06 01:16:55;;;;;;;3.20;2.47;;;15.30;99.90;;;16.21;100.00;98527.94;5073918;28;20480;-81
2023/09/06 01:19:33;;;;;;;5.10;2.67;;;15.30;99.90;;;16.10;100.00;98526.78;5074562;28;20888;-81
2023/09/06 01:22:17;;;;;;;3.17;2.23;;;15.30;99.90;;;16.16;100.00;98533.06;5074199;28;20496;-81
2023/09/06 01:24:51;;;;;;;2.83;2.17;;;15.30;99.90;;;16.14;100.00;98529.78;5073764;28;20448;-80
2023/09/06 01:27:21;;;;;;;3.20;2.17;;;15.30;99.90;;;16.12;100.00;98531.84;5074987;28;20451;-80
2023/09/06 01:29:51;;;;;;;4.97;2.20;;;15.20;99.90;;;16.17;100.00;98539.97;5077295;28;20460;-81
2023/09/06 01:32:21;;;;;;;3.23;2.20;;;15.20;99.90;;;16.12;100.00;98531.84;5077584;28;20467;-80
2023/09/06 01:34:52;;;;;;;4.60;2.13;;;15.10;99.90;;;16.14;100.00;98531.66;5075883;28;20502;-81
2023/09/06 01:37:22;;;;;;;3.10;2.20;;;15.10;99.90;;;16.13;100.00;98535.31;5076493;28;20566;-81
2023/09/06 01:39:53;;;;;;;8.80;1.87;;;15.00;99.90;;;16.15;100.00;98534.06;5077200;28;20930;-81
2023/09/06 01:42:23;;;;;;;3.77;2.47;;;15.00;99.90;;;16.06;100.00;98540.59;5075333;28;20459;-81
2023/09/06 01:44:53;;;;;;;5.00;2.60;;;15.00;99.90;;;15.92;100.00;98529.31;5075008;28;20463;-81
2023/09/06 01:47:24;;;;;;;7.93;2.20;;;15.10;99.90;;;15.88;100.00;98530.72;5075944;28;20496;-80
2023/09/06 01:49:53;;;;;;;6.27;1.83;;;15.00;99.90;;;15.88;100.00;98533.38;5076636;28;20460;-81
2023/09/06 01:52:23;;;;;;;10.00;2.87;;;14.90;99.90;;;15.93;100.00;98532.75;5076669;28;20463;-80
2023/09/06 01:54:56;;;;;;;4.67;2.00;;;14.90;99.90;;;15.89;100.00;98527.09;5075610;28;20475;-81
2023/09/06 01:57:26;;;;;;;5.63;2.93;;;14.90;99.90;;;15.89;100.00;98526.28;5075926;28;20454;-81
2023/09/06 01:59:55;;;;;;;2.60;2.07;;;14.90;99.90;;;15.93;100.00;98528.25;5076548;28;20474;-81
2023/09/06 02:02:25;;;;;;;2.90;2.00;;;14.90;99.90;;;15.88;100.00;98530.72;5075587;28;20544;-80
2023/09/06 02:04:56;;;;;;;3.63;2.50;;;14.90;99.90;;;15.87;100.00;98528.28;5077569;28;20567;-81
2023/09/06 02:07:26;;;;;;;9.43;2.27;;;14.90;99.90;;;15.81;100.00;98523.84;5073060;28;20463;-81
2023/09/06 02:09:57;;;;;;;2.97;2.47;;;14.90;99.90;;;15.85;100.00;98530.34;5075903;28;20542;-81
2023/09/06 02:12:28;;;;;;;4.53;2.10;;;14.90;99.90;;;15.83;100.00;98527.91;5072948;28;20466;-81
2023/09/06 02:14:57;;;;;;;3.33;2.47;;;14.80;99.90;;;15.81;100.00;98526.50;5073072;28;20502;-81
2023/09/06 02:17:26;;;;;;;2.17;1.97;;;14.70;99.90;;;15.79;100.00;98516.13;5068239;28;21042;-80
2023/09/06 02:19:56;;;;;;;3.20;2.00;;;14.60;99.90;;;15.77;100.00;98517.38;5074776;28;20544;-81
2023/09/06 02:22:26;;;;;;;3.77;2.30;;;14.70;99.90;;;15.71;100.00;98523.50;5070084;28;20471;-81
2023/09/06 02:24:59;;;;;;;7.20;2.27;;;14.60;99.90;;;15.73;100.00;98524.06;5072845;28;20975;-81
2023/09/06 02:27:31;;;;;;;6.90;2.27;;;14.60;99.90;;;15.64;100.00;98517.41;5071163;28;21014;-81
2023/09/06 02:30:02;;;;;;;11.83;2.40;;;14.60;99.90;;;15.62;100.00;98516.84;5072765;28;20653;-80
2023/09/06 02:32:32;;;;;;;7.00;2.70;;;14.60;99.90;;;15.50;100.00;98511.38;5072258;28;20455;-82
2023/09/06 02:35:01;;;;;;;3.40;2.10;;;14.60;99.90;;;15.41;100.00;98512.59;5074085;28;20497;-81
2023/09/06 02:37:31;;;;;;;6.17;1.90;;;14.50;99.90;;;15.42;100.00;98508.94;5074386;28;21191;-80
2023/09/06 02:40:06;;;;;;;8.30;2.53;;;14.50;99.90;;;15.48;100.00;98508.94;5070677;28;20448;-81
2023/09/06 02:42:38;;;;;;;2.90;1.97;;;14.40;99.90;;;15.45;100.00;98509.31;5071623;28;20670;-81
2023/09/06 02:45:10;;;;;;;4.27;2.27;;;14.40;99.90;;;15.47;100.00;98504.66;5072107;28;20551;-81
2023/09/06 02:47:48;;;;;;;8.10;2.47;;;14.30;99.90;;;15.42;100.00;98504.47;5072442;28;20519;-81
2023/09/06 02:50:22;;;;;;;2.70;2.00;;;14.40;99.90;;;15.41;100.00;98513.38;5070940;28;20468;-81
2023/09/06 02:52:56;;;;;;;2.60;1.90;;;14.30;99.90;;;15.36;100.00;98510.56;5073349;28;20451;-81
2023/09/06 02:55:27;;;;;;;2.53;2.27;;;14.30;99.90;;;15.40;100.00;98513.59;5072981;28;20495;-80
2023/09/06 02:57:56;;;;;;;3.67;2.07;;;14.30;99.90;;;15.36;100.00;98510.56;5075666;28;20957;-81
2023/09/06 03:00:29;;;;;;;3.30;2.23;;;14.20;99.90;;;15.28;100.00;98516.03;5074747;28;20902;-81
2023/09/06 03:03:05;;;;;;;5.03;2.10;;;14.30;99.90;;;15.29;100.00;98520.31;5075446;28;20463;-80
2023/09/06 03:05:41;;;;;;;3.30;2.10;;;14.30;99.90;;;15.33;100.00;98516.25;5072752;28;20470;-81
2023/09/06 03:08:13;;;;;;;4.10;2.60;;;14.20;99.90;;;15.26;100.00;98510.19;5069309;28;20969;-81
2023/09/06 03:10:44;;;;;;;5.90;2.40;;;14.20;99.90;;;15.23;100.00;98518.50;5072026;28;20491;-80
2023/09/06 03:13:15;;;;;;;9.10;2.10;;;14.20;99.90;;;15.24;100.00;98512.19;5070104;28;21071;-81
2023/09/06 03:15:45;;;;;;;2.50;1.90;;;14.10;99.90;;;15.24;100.00;98514.84;5072161;28;20510;-80
2023/09/06 03:18:19;;;;;;;4.10;2.47;;;14.20;99.90;;;15.18;100.00;98518.28;5071358;28;20462;-81
2023/09/06 03:20:55;;;;;;;3.50;2.40;;;14.10;99.90;;;15.22;100.00;98522.16;5069717;28;20828;-81
2023/09/06 03:23:26;;;;;;;5.53;2.40;;;14.10;99.90;;;15.16;100.00;98517.69;5064283;28;20558;-81
2023/09/06 03:25:58;;;;;;;4.03;1.80;;;14.10;99.90;;;15.18;100.00;98522.75;5068741;28;20466;-80
2023/09/06 03:28:29;;;;;;;5.60;2.80;;;14.00;99.90;;;15.13;100.00;98528.66;5069581;28;20462;-80
2023/09/06 03:31:00;;;;;;;6.27;2.33;;;13.90;99.90;;;15.12;100.00;98529.66;5071566;28;20526;-81
2023/09/06 03:33:31;;;;;;;4.63;2.20;;;14.00;99.90;;;15.05;100.00;98531.47;5073192;28;20917;-80
2023/09/06 03:36:07;;;;;;;3.00;2.20;;;13.90;99.90;;;15.01;100.00;98533.72;5074549;28;20562;-80
2023/09/06 03:38:37;;;;;;;3.23;2.10;;;14.00;99.90;;;14.96;100.00;98532.72;5073348;28;20467;-80
2023/09/06 03:41:09;;;;;;;5.30;2.17;;;13.90;99.90;;;15.00;100.00;98532.09;5074527;28;20474;-79
2023/09/06 03:43:40;;;;;;;2.47;2.00;;;13.90;99.90;;;14.97;100.00;98524.59;5073743;28;20558;-80
2023/09/06 03:46:13;;;;;;;2.70;1.90;;;14.00;99.90;;;14.97;100.00;98537.75;5074927;28;20463;-80
2023/09/06 03:48:45;;;;;;;3.27;2.53;;;13.80;99.90;;;14.97;100.00;98532.50;5073528;28;21043;-80
2023/09/06 03:51:17;;;;;;;3.40;2.00;;;13.80;99.90;;;14.93;100.00;98535.72;5076097;28;20468;-80
2023/09/06 03:53:47;;;;;;;2.50;2.00;;;13.80;99.90;;;14.86;100.00;98535.72;5076820;28;20495;-81
2023/09/06 03:56:19;;;;;;;6.97;2.80;;;13.90;99.90;;;14.85;100.00;98535.94;5078046;28;20478;-82
2023/09/06 03:58:49;;;;;;;3.73;2.83;;;13.90;99.90;;;14.87;100.00;98536.53;5077942;28;20468;-81
2023/09/06 04:01:19;;;;;;;6.83;2.23;;;13.80;99.90;;;14.74;100.00;98536.53;5079937;28;20529;-80
2023/09/06 04:03:50;;;;;;;3.50;2.50;;;13.80;99.90;;;14.74;100.00;98539.97;5077253;28;20492;-80
2023/09/06 04:06:19;;;;;;;3.80;2.43;;;13.80;99.90;;;14.76;100.00;98539.75;5077566;28;20466;-81
2023/09/06 04:08:50;;;;;;;2.83;2.23;;;13.70;99.90;;;14.71;100.00;98539.56;5075938;28;20528;-83
2023/09/06 04:11:22;;;;;;;3.93;2.47;;;13.60;99.90;;;14.76;100.00;98542.41;5072245;28;20838;-81
2023/09/06 04:13:55;;;;;;;6.63;2.90;;;13.60;99.90;;;14.74;100.00;98537.34;5074134;28;20473;-80
2023/09/06 04:16:27;;;;;;;4.93;2.17;;;13.60;99.90;;;14.69;100.00;98541.59;5072595;28;20913;-80
2023/09/06 04:18:57;;;;;;;3.67;2.23;;;13.60;99.90;;;14.69;100.00;98544.22;5070731;28;21141;-80
2023/09/06 04:21:27;;;;;;;14.13;2.37;;;13.50;99.90;;;14.69;100.00;98534.50;5071600;28;20507;-80
2023/09/06 04:23:58;;;;;;;8.33;2.40;;;13.50;99.90;;;14.66;100.00;98542.78;5072151;28;20547;-80
2023/09/06 04:26:30;;;;;;;4.50;2.30;;;13.50;99.90;;;14.64;100.00;98541.38;5073449;28;20448;-80
2023/09/06 04:28:59;;;;;;;4.60;2.30;;;13.50;99.90;;;14.59;100.00;98542.78;5073077;28;20469;-80
2023/09/06 04:31:32;;;;;;;2.53;1.83;;;13.50;99.90;;;14.49;100.00;98538.94;5069256;28;21019;-80
2023/09/06 04:34:05;;;;;;;2.57;2.00;;;13.50;99.90;;;14.51;100.00;98545.59;5073393;28;20459;-80
2023/09/06 04:36:39;;;;;;;6.57;2.27;;;13.50;99.90;;;14.51;100.00;98550.06;5077158;28;21126;-81
2023/09/06 04:39:09;;;;;;;2.23;2.03;;;13.40;99.90;;;14.46;100.00;98557.75;5074196;28;20562;-80
2023/09/06 04:41:43;;;;;;;6.30;2.20;;;13.40;99.90;;;14.44;100.00;98552.66;5074529;28;20807;-80
2023/09/06 04:44:14;;;;;;;3.33;2.30;;;13.40;99.90;;;14.40;100.00;98555.91;5075080;28;20471;-81
2023/09/06 04:46:46;;;;;;;6.20;3.00;;;13.30;99.90;;;14.38;100.00;98555.28;5077886;28;20471;-81
2023/09/06 04:49:17;;;;;;;5.17;2.43;;;13.40;99.90;;;14.42;100.00;98549.44;5075914;28;20463;-81
2023/09/06 04:51:52;;;;;;;7.43;2.07;;;13.40;99.90;;;14.47;100.00;98556.75;5077106;28;20460;-82
2023/09/06 04:54:24;;;;;;;2.97;2.30;;;13.40;99.90;;;14.41;100.00;98555.69;5078658;28;21135;-81
2023/09/06 04:57:02;;;;;;;3.80;2.43;;;13.40;99.90;;;14.35;100.00;98545.97;5080092;28;20491;-82
2023/09/06 04:59:36;;;;;;;2.60;2.00;;;13.50;99.90;;;14.36;100.00;98554.69;5076366;28;20497;-83
2023/09/06 05:02:08;;;;;;;2.17;1.80;;;13.30;99.90;;;14.36;100.00;98550.25;5075521;28;20455;-82
2023/09/06 05:04:39;;;;;;;2.93;2.20;;;13.30;99.90;;;14.35;100.00;98558.31;5075132;28;20491;-82
2023/09/06 05:07:08;;;;;;;4.87;2.27;;;13.30;99.90;;;14.33;100.00;98561.13;5077290;28;20459;-81
2023/09/06 05:09:39;;;;;;;3.60;2.40;;;13.30;99.90;;;14.32;100.00;98559.50;5073427;28;20486;-81
2023/09/06 05:12:11;;;;;;;7.23;2.20;;;13.30;99.90;;;14.33;100.00;98555.88;5075500;28;20527;-80
2023/09/06 05:14:40;;;;;;;2.93;2.30;;;13.30;99.90;;;14.27;100.00;98561.09;5074357;28;20463;-80
2023/09/06 05:17:13;;;;;;;8.80;2.37;;;13.20;99.90;;;14.24;100.00;98564.13;5074828;28;20487;-81
2023/09/06 05:19:42;;;;;;;4.00;2.43;;;13.20;99.90;;;14.20;100.00;98568.97;5071072;28;20495;-80
2023/09/06 05:22:11;;;;;;;3.50;2.50;;;13.20;99.90;;;14.23;100.00;98563.31;5073531;28;20558;-81
2023/09/06 05:24:41;;;;;;;3.97;2.53;;;13.30;99.90;;;14.23;100.00;98565.94;5073992;28;20708;-81
2023/09/06 05:27:17;;;;;;;3.80;2.30;;;13.10;99.90;;;14.30;100.00;98564.13;5076855;28;20466;-82
2023/09/06 05:29:49;;;;;;;4.50;2.33;;;13.10;99.90;;;14.28;100.00;98558.28;5074847;28;20478;-82
2023/09/06 05:32:20;;;;;;;7.73;2.47;;;13.20;99.90;;;14.22;100.00;98561.69;5074033;28;20487;-81
2023/09/06 05:34:51;;;;;;;7.40;2.90;;;13.20;99.90;;;14.24;100.00;98557.03;5076227;28;20555;-81
2023/09/06 05:37:24;;;;;;;2.90;2.43;;;13.10;99.90;;;14.23;100.00;98554.63;5071271;28;20579;-80
2023/09/06 05:39:53;;;;;;;3.70;2.50;;;13.20;99.90;;;14.20;100.00;98565.50;5071865;28;20993;-81
2023/09/06 05:42:24;;;;;;;2.90;2.60;;;13.20;99.90;;;14.19;100.00;98567.34;5071953;28;20472;-81
2023/09/06 05:44:54;;;;;;;4.87;2.50;;;13.20;99.90;;;14.22;100.00;98571.41;5072882;28;20455;-80
2023/09/06 05:47:24;;;;;;;3.80;2.67;;;13.10;99.90;;;14.20;100.00;98571.59;5074586;28;20463;-81
2023/09/06 05:49:57;;;;;;;5.97;3.63;;;13.10;99.90;;;14.25;100.00;98578.91;5072308;28;20465;-80
2023/09/06 05:52:28;;;;;;;5.23;2.80;;;13.20;99.90;;;14.26;100.00;98581.34;5072444;28;20470;-80
2023/09/06 05:54:58;;;;;;;4.77;2.57;;;13.10;99.90;;;14.23;100.00;98583.56;5073783;28;20563;-80
2023/09/06 05:57:29;;;;;;;3.20;2.43;;;13.20;99.90;;;14.25;100.00;98584.16;5072291;28;20483;-80
2023/09/06 06:00:01;;;;;;;5.20;3.00;;;13.20;99.90;;;14.26;100.00;98585.78;5071807;28;20463;-81
2023/09/06 06:02:32;;;;;;;5.20;3.37;;;13.30;99.90;;;14.28;100.00;98587.22;5073307;28;20464;-80
2023/09/06 06:05:02;;;;;;;5.83;3.17;;;13.30;99.90;;;14.33;100.00;98582.19;5073225;28;20580;-80
2023/09/06 06:07:33;;;;;;;6.50;3.10;;;13.40;99.90;;;14.39;100.00;98576.16;5071206;28;20988;-80
2023/09/06 06:10:04;;;;;;;4.50;2.50;;;13.40;99.90;;;14.42;100.00;98581.03;5070922;28;20456;-80
2023/09/06 06:12:38;;;;;;;2.90;2.37;;;13.40;99.90;;;14.47;100.00;98568.06;5070669;28;20460;-80
2023/09/06 06:15:13;;;;;;;2.80;2.10;;;13.50;99.90;;;14.45;100.00;98575.34;5071577;28;20967;-80
2023/09/06 06:17:45;;;;;;;4.00;2.87;;;13.50;99.90;;;14.50;100.00;98572.13;5073472;28;21244;-80
2023/09/06 06:20:17;;;;;;;3.13;2.60;;;13.50;99.90;;;14.56;100.00;98582.69;5071333;28;20814;-77
2023/09/06 06:22:59;;;;;;;5.07;2.93;;;13.50;99.90;;;14.55;100.00;98574.97;5072962;28;20463;-80
2023/09/06 06:25:29;;;;;;;7.83;2.90;;;13.50;99.90;;;14.56;100.00;98580.03;5070664;28;20505;-80
2023/09/06 06:28:02;;;;;;;3.17;2.47;;;13.60;99.90;;;14.56;100.00;98581.84;5073067;28;20479;-80
2023/09/06 06:30:33;;;;;;;5.30;3.13;;;13.60;99.90;;;14.57;100.00;98579.03;5069179;28;20857;-80
2023/09/06 06:33:05;;;;;;;10.43;2.80;;;13.50;99.90;;;14.56;100.00;98585.31;5074413;28;20457;-80
2023/09/06 06:35:39;;;;;;;5.30;3.13;;;13.60;99.90;;;14.59;100.00;98581.47;5071625;28;20518;-80
2023/09/06 06:38:14;;;;;;;6.27;3.17;;;13.60;99.90;;;14.65;100.00;98579.88;5071574;28;21063;-80
2023/09/06 06:40:45;;;;;;;2.87;2.13;;;13.60;99.90;;;14.66;100.00;98581.47;5074456;28;20498;-80
2023/09/06 06:43:16;;;;;;;2.43;2.13;;;13.70;99.90;;;14.70;100.00;98582.69;5073529;28;20454;-80
2023/09/06 06:45:48;;;;;;;3.83;3.10;;;13.70;99.90;;;14.73;100.00;98583.09;5074977;28;20502;-80
2023/09/06 06:48:19;;;;;;;4.93;2.83;;;13.70;99.90;;;14.76;100.00;98587.16;5076719;28;20488;-81
2023/09/06 06:50:50;;;;;;;6.37;2.73;;;13.70;99.90;;;14.81;100.00;98587.38;5074379;28;21059;-80
2023/09/06 06:53:21;;;;;;;12.03;3.50;;;13.70;99.90;;;14.86;100.00;98592.84;5075565;28;20518;-80
2023/09/06 06:55:54;;;;;;;5.53;3.00;;;13.80;99.90;;;14.86;100.00;98583.13;5075015;28;20471;-81
2023/09/06 06:58:25;;;;;;;5.17;2.90;;;13.80;99.90;;;14.91;100.00;98585.16;5074608;28;21017;-80
2023/09/06 07:00:56;;;;;;;5.83;2.87;;;13.90;99.90;;;14.94;100.00;98584.75;5073799;28;20488;-80
2023/09/06 07:03:26;;;;;;;4.07;2.80;;;13.90;99.90;;;14.98;100.00;98580.72;5072640;28;20964;-80
2023/09/06 07:05:57;;;;;;;4.70;3.07;;;14.00;99.90;;;15.02;100.00;98584.56;5069652;28;20772;-78
2023/09/06 07:08:29;;;;;;;3.30;2.50;;;14.00;99.90;;;15.05;100.00;98586.81;5070793;28;20887;-80
2023/09/06 07:10:59;;;;;;;5.63;3.23;;;14.00;99.90;;;15.10;100.00;98579.91;5072809;28;20547;-79
2023/09/06 07:13:31;;;;;;;9.83;3.47;;;14.10;99.90;;;15.16;100.00;98575.66;5073371;28;20488;-80
2023/09/06 07:16:00;;;;;;;3.90;3.00;;;14.10;99.90;;;15.21;100.00;98577.66;5072494;28;20478;-80
2023/09/06 07:18:30;;;;;;;3.63;3.07;;;14.20;99.90;;;15.25;100.00;98576.25;5074369;28;21203;-80
2023/09/06 07:21:01;;;;;;;16.27;3.20;;;14.20;99.90;;;15.28;100.00;98576.66;5070051;28;20460;-80
2023/09/06 07:23:32;;;;;;;7.00;3.00;;;14.30;99.90;;;15.31;100.00;98584.16;5070730;28;20863;-80
2023/09/06 07:26:01;;;;;;;8.60;5.47;;;14.30;99.90;;;15.38;100.00;98584.97;5072451;28;20471;-79
2023/09/06 07:28:40;;;;;;;40.57;20.17;;;14.40;99.90;;;15.42;100.00;98578.28;5074864;28;21134;-80
2023/09/06 07:31:09;;;;;;;13.60;4.13;;;14.50;99.90;;;15.48;100.00;98585.38;5074986;28;20463;-80
2023/09/06 07:33:38;;;;;;;4.23;2.70;;;14.50;99.90;;;15.53;100.00;98580.31;5075801;28;20460;-80
2023/09/06 07:36:10;;;;;;;4.67;3.37;;;14.50;99.90;;;15.55;100.00;98583.53;5075573;28;20459;-80
2023/09/06 07:38:41;;;;;;;4.37;2.50;;;14.70;99.90;;;15.62;100.00;98588.03;5073561;28;20506;-80
2023/09/06 07:41:11;;;;;;;8.30;3.20;;;14.70;99.90;;;15.64;100.00;98585.97;5075165;28;20468;-80
2023/09/06 07:43:43;;;;;;;4.60;3.00;;;14.80;99.90;;;15.73;100.00;98584.72;5073274;28;20777;-80
2023/09/06 07:46:13;;;;;;;22.77;7.60;;;14.80;99.90;;;15.80;100.00;98582.88;5069695;28;21196;-80
2023/09/06 07:48:44;;;;;;;225.63;91.10;;;14.90;99.90;;;19.41;100.00;98582.91;5074788;28;20463;-80
2023/09/06 07:51:14;;;;;;;26.53;9.30;;;19.10;99.90;;;18.40;100.00;98590.09;5073136;28;20474;-80
2023/09/06 07:53:45;;;;;;;36.53;10.90;;;17.70;99.90;;;17.98;100.00;98597.09;5071754;28;20489;-79
2023/09/06 07:56:14;;;;;;;14.80;5.80;;;17.20;99.90;;;17.76;100.00;98595.94;5073133;28;20463;-80
2023/09/06 07:58:45;;;;;;;30.87;14.43;;;16.90;99.90;;;17.60;100.00;98592.00;5073489;28;20504;-81
2023/09/06 08:01:16;;;;;;;20.03;9.83;;;16.80;99.90;;;17.50;100.00;98589.03;5070990;28;20456;-80
2023/09/06 08:03:47;;;;;;;23.03;12.43;;;16.70;99.90;;;17.46;100.00;98593.94;5070587;28;20451;-81
2023/09/06 08:06:17;;;;;;;33.80;14.43;;;16.60;99.90;;;17.43;100.00;98594.38;5071104;28;21223;-80
2023/09/06 08:08:46;;;;;;;31.90;12.17;;;16.60;99.90;;;17.42;100.00;98598.03;5070492;28;20834;-80
2023/09/06 08:11:18;;;;;;;124.40;41.60;;;16.60;99.90;;;17.40;100.00;98597.47;5074346;28;21385;-80
2023/09/06 08:13:49;;;;;;;23.00;8.63;;;16.50;99.90;;;17.41;100.00;98591.16;5072193;28;20467;-80
2023/09/06 08:16:20;;;;;;;47.87;25.47;;;16.50;99.90;;;17.43;100.00;98599.66;5074180;28;20828;-80
2023/09/06 08:18:50;;;;;;;38.00;20.73;;;16.60;99.90;;;17.45;100.00;98597.63;5072693;28;20589;-80
2023/09/06 08:21:21;;;;;;;9.63;5.37;;;16.60;99.90;;;17.47;100.00;98603.50;5072347;28;20467;-80
2023/09/06 08:23:51;;;;;;;7.80;4.57;;;16.60;99.90;;;17.49;100.00;98598.00;5076354;28;20456;-80
2023/09/06 08:26:20;;;;;;;3.93;2.77;;;16.70;99.90;;;17.53;100.00;98599.16;5076880;28;20451;-81
2023/09/06 08:28:52;;;;;;;31.47;4.63;;;16.70;99.90;;;17.56;100.00;98599.56;5075523;28;20464;-80
2023/09/06 08:31:22;;;;;;;5.27;3.30;;;16.80;99.90;;;17.58;100.00;98597.53;5072971;28;20545;-80
2023/09/06 08:33:52;;;;;;;7.43;3.40;;;16.80;99.90;;;17.62;100.00;98602.38;5074788;28;20958;-80
2023/09/06 08:36:22;;;;;;;8.70;3.13;;;16.80;99.90;;;17.63;100.00;98598.72;5079355;28;20828;-81
2023/09/06 08:38:52;;;;;;;6.83;3.63;;;16.80;99.90;;;17.66;100.00;98600.94;5074120;28;20471;-80
2023/09/06 08:41:21;;;;;;;6.00;3.50;;;16.90;99.90;;;17.71;100.00;98598.41;5075981;28;21034;-80
2023/09/06 08:43:55;;;;;;;11.53;3.60;;;17.00;99.90;;;17.75;100.00;98602.25;5073931;28;20468;-80
2023/09/06 08:46:30;;;;;;;7.33;3.33;;;17.00;99.90;;;17.78;100.00;98599.16;5072918;28;20463;-80
2023/09/06 08:49:04;;;;;;;10.53;4.60;;;17.00;99.90;;;17.83;100.00;98604.63;5072728;28;20559;-80
2023/09/06 08:51:35;;;;;;;9.23;3.03;;;17.10;99.90;;;17.87;100.00;98605.81;5072748;28;20468;-80
2023/09/06 08:54:05;;;;;;;5.87;2.70;;;17.20;99.90;;;17.92;100.00;98603.28;5074028;28;20477;-80
2023/09/06 08:56:38;;;;;;;7.23;4.03;;;17.20;99.90;;;17.97;100.00;98600.81;5074507;28;20529;-80
2023/09/06 08:59:09;;;;;;;23.03;6.50;;;17.30;99.90;;;18.01;100.00;98596.69;5073190;28;20519;-80
2023/09/06 09:01:39;;;;;;;5.10;3.63;;;17.30;99.90;;;18.05;100.00;98596.00;5072379;28;20665;-80
2023/09/06 09:04:09;;;;;;;6.90;3.10;;;17.40;99.90;;;18.10;100.00;98590.06;5074676;28;20475;-80
2023/09/06 09:06:43;;;;;;;3.50;2.73;;;17.40;99.90;;;18.16;100.00;98594.47;5073132;28;20554;-79
2023/09/06 09:09:17;;;;;;;6.10;2.77;;;17.40;99.90;;;18.20;100.00;98597.47;5072941;28;20464;-80
2023/09/06 09:11:50;;;;;;;5.17;3.30;;;17.50;99.90;;;18.23;100.00;98597.84;5072815;28;20459;-80
2023/09/06 09:14:22;;;;;;;5.00;2.53;;;17.60;99.90;;;18.31;100.00;98594.09;5072411;28;20479;-80
2023/09/06 09:16:56;;;;;;;5.20;2.83;;;17.60;99.90;;;18.36;100.00;98602.97;5072168;28;20486;-79
2023/09/06 09:19:27;;;;;;;10.50;5.73;;;17.70;99.90;;;18.40;100.00;98596.19;5073863;28;21059;-78
2023/09/06 09:21:56;;;;;;;7.50;5.20;;;17.70;99.90;;;18.47;100.00;98607.53;5074050;28;20582;-80
2023/09/06 09:24:28;;;;;;;3.57;2.93;;;17.80;99.90;;;18.55;100.00;98609.09;5075857;28;20832;-80
2023/09/06 09:26:58;;;;;;;8.50;2.73;;;17.90;99.90;;;18.68;100.00;98602.78;5074647;28;20454;-80
2023/09/06 09:29:29;;;;;;;3.63;2.40;;;18.00;99.90;;;18.74;100.00;98607.22;5076293;28;20464;-80
2023/09/06 09:32:04;;;;;;;3.90;2.70;;;18.10;99.90;;;18.81;100.00;98597.31;5073671;28;20463;-80
2023/09/06 09:34:34;;;;;;;4.60;2.70;;;18.10;99.90;;;18.88;100.00;98601.47;5073048;28;20546;-80
2023/09/06 09:37:05;;;;;;;6.00;2.83;;;18.20;99.90;;;18.97;100.00;98596.66;5073003;28;20492;-80
2023/09/06 09:39:35;;;;;;;5.10;3.00;;;18.30;99.90;;;19.07;100.00;98604.88;5074658;28;20495;-80
2023/09/06 09:42:09;;;;;;;7.43;3.20;;;18.40;99.90;;;19.14;100.00;98597.63;5076358;28;20548;-80
2023/09/06 09:44:41;;;;;;;3.53;2.80;;;18.40;99.90;;;19.25;100.00;98599.50;5074106;28;20456;-80
2023/09/06 09:47:14;;;;;;;7.20;3.50;;;18.60;99.90;;;19.30;100.00;98591.63;5075261;28;20447;-80
2023/09/06 09:50:07;;;;;;;4.73;2.53;;;18.60;99.90;;;19.44;100.00;98585.09;5075490;28;20497;-80
2023/09/06 09:52:38;;;;;;;5.17;3.33;;;18.80;99.90;;;19.61;100.00;98592.41;5075573;28;20472;-80
2023/09/06 09:55:11;;;;;;;5.53;3.00;;;18.90;99.90;;;19.69;100.00;98589.38;5078161;28;20516;-80
2023/09/06 09:57:43;;;;;;;4.20;2.30;;;19.00;99.90;;;19.74;100.00;98589.50;5075775;28;20957;-80
2023/09/06 10:00:27;;;;;;;6.60;3.17;;;19.10;99.90;;;19.75;100.00;98586.59;5076139;28;20487;-80
2023/09/06 10:02:59;;;;;;;8.40;3.13;;;19.10;99.90;;;19.84;100.00;98589.72;5075818;28;20528;-80
2023/09/06 10:05:31;;;;;;;3.47;2.90;;;19.20;99.90;;;19.98;100.00;98589.25;5075056;28;20954;-80
2023/09/06 10:08:06;;;;;;;4.27;2.77;;;19.30;99.90;;;20.03;100.00;98581.38;5076247;28;20463;-80
2023/09/06 10:10:39;;;;;;;4.50;3.07;;;19.30;99.90;;;20.06;100.00;98585.44;5071173;28;20474;-80
2023/09/06 10:13:09;;;;;;;4.33;2.90;;;19.40;99.90;;;20.09;100.00;98585.75;5072131;28;21032;-80
2023/09/06 10:15:42;;;;;;;4.20;3.00;;;19.40;99.90;;;20.21;100.00;98588.38;5072653;28;20475;-80
2023/09/06 10:18:13;;;;;;;4.27;2.60;;;19.60;99.90;;;20.26;100.00;98583.16;5072347;28;20953;-80
2023/09/06 10:20:42;;;;;;;3.87;2.63;;;19.60;99.90;;;20.30;100.00;98586.19;5074072;28;20503;-81
2023/09/06 10:23:12;;;;;;;6.87;3.00;;;19.60;99.90;;;20.35;100.00;98588.94;5071848;28;20495;-80
2023/09/06 10:25:43;;;;;;;4.13;2.63;;;19.70;99.90;;;20.38;100.00;98586.63;5072416;28;20542;-81
2023/09/06 10:28:15;;;;;;;4.00;3.00;;;19.80;99.90;;;20.43;100.00;98583.25;5073951;28;20464;-81